createdAt,value
2018-01-17T00:01:48.518Z,46.80
2018-01-17T00:03:51.885Z,46.80
2018-01-17T00:05:55.267Z,46.80
2018-01-17T00:07:58.643Z,46.80
2018-01-17T00:10:02.758Z,46.80
2018-01-17T00:12:06.108Z,46.70
2018-01-17T00:14:10.974Z,46.80
2018-01-17T00:16:15.122Z,46.80
2018-01-17T00:18:18.475Z,46.80
2018-01-17T00:20:21.842Z,46.80
2018-01-17T00:22:24.753Z,46.80
2018-01-17T00:24:28.141Z,47.40
2018-01-17T00:26:32.305Z,46.80
2018-01-17T00:28:35.654Z,46.80
2018-01-17T00:30:39.013Z,46.70
2018-01-17T00:32:43.175Z,46.80
2018-01-17T00:34:46.524Z,46.80
2018-01-17T00:36:49.890Z,46.80
2018-01-17T00:38:53.251Z,46.80
2018-01-17T00:40:56.619Z,46.80
2018-01-17T00:43:00.024Z,46.70
2018-01-17T00:45:03.389Z,46.80
2018-01-17T00:47:07.563Z,46.80
2018-01-17T00:49:10.922Z,46.70
2018-01-17T00:51:14.281Z,46.80
2018-01-17T00:53:18.446Z,46.80
2018-01-17T00:55:21.814Z,46.70
2018-01-17T00:57:25.173Z,47.40
2018-01-17T00:59:29.292Z,46.80
2018-01-17T01:01:32.661Z,46.80
2018-01-17T01:03:36.073Z,46.80
2018-01-17T01:05:39.446Z,46.80
2018-01-17T01:07:42.804Z,46.80
2018-01-17T01:09:46.161Z,46.80
2018-01-17T01:11:49.526Z,46.80
2018-01-17T01:13:53.685Z,46.80
2018-01-17T01:15:57.046Z,46.70
2018-01-17T01:18:00.421Z,46.80
2018-01-17T01:20:04.096Z,46.70
2018-01-17T01:22:07.464Z,46.70
2018-01-17T01:24:10.858Z,46.70
2018-01-17T01:26:14.218Z,46.70
2018-01-17T01:28:17.572Z,46.80
2018-01-17T01:30:20.934Z,46.70
2018-01-17T01:32:24.285Z,46.80
2018-01-17T01:34:27.670Z,46.70
2018-01-17T01:36:31.810Z,46.80
2018-01-17T01:38:35.170Z,46.70
2018-01-17T01:40:39.288Z,46.70
2018-01-17T01:42:43.412Z,46.70
2018-01-17T01:44:46.807Z,46.70
2018-01-17T01:46:50.166Z,46.70
2018-01-17T01:49:01.825Z,46.80
2018-01-17T01:51:05.188Z,46.80
2018-01-17T01:53:08.556Z,46.70
2018-01-17T01:55:11.935Z,46.80
2018-01-17T01:57:16.051Z,46.80
2018-01-17T01:59:20.171Z,46.80
2018-01-17T02:01:23.525Z,46.70
2018-01-17T02:03:26.883Z,46.70
2018-01-17T02:05:30.270Z,46.70
2018-01-17T02:07:33.627Z,46.70
2018-01-17T02:09:37.748Z,46.70
2018-01-17T02:11:41.116Z,46.70
2018-01-17T02:13:45.236Z,46.70
2018-01-17T02:15:49.378Z,46.70
2018-01-17T02:17:52.736Z,46.70
2018-01-17T02:19:56.864Z,46.80
2018-01-17T02:22:00.208Z,46.70
2018-01-17T02:24:03.579Z,46.70
2018-01-17T02:26:06.976Z,46.70
2018-01-17T02:28:10.336Z,46.70
2018-01-17T02:30:13.709Z,46.70
2018-01-17T02:32:18.078Z,46.70
2018-01-17T02:34:21.436Z,46.70
2018-01-17T02:36:24.831Z,46.70
2018-01-17T02:38:28.188Z,46.70
2018-01-17T02:40:39.518Z,46.80
2018-01-17T02:42:42.920Z,46.70
2018-01-17T02:44:46.289Z,46.70
2018-01-17T02:46:49.673Z,46.70
2018-01-17T02:48:53.025Z,46.70
2018-01-17T02:50:56.384Z,46.70
2018-01-17T02:52:59.917Z,46.70
2018-01-17T02:55:04.152Z,46.70
2018-01-17T02:57:07.554Z,46.70
2018-01-17T02:59:10.719Z,46.70
2018-01-17T03:01:14.852Z,46.70
2018-01-17T03:03:18.247Z,46.70
2018-01-17T03:05:21.610Z,46.70
2018-01-17T03:07:24.958Z,46.70
2018-01-17T03:09:28.342Z,46.70
2018-01-17T03:11:32.473Z,46.70
2018-01-17T03:13:35.866Z,46.70
2018-01-17T03:15:39.226Z,46.70
2018-01-17T03:17:42.580Z,46.70
2018-01-17T03:19:46.717Z,46.70
2018-01-17T03:21:50.080Z,46.60
2018-01-17T03:23:54.243Z,46.70
2018-01-17T03:25:57.617Z,46.60
2018-01-17T03:28:00.976Z,46.60
2018-01-17T03:30:05.147Z,46.60
2018-01-17T03:32:08.611Z,46.60
2018-01-17T03:34:11.998Z,46.60
2018-01-17T03:36:15.372Z,46.60
2018-01-17T03:38:18.772Z,46.60
2018-01-17T03:40:22.888Z,46.70
2018-01-17T03:42:26.285Z,46.60
2018-01-17T03:44:29.510Z,46.60
2018-01-17T03:46:32.877Z,46.60
2018-01-17T03:48:36.260Z,46.60
2018-01-17T03:50:39.690Z,46.60
2018-01-17T03:52:43.063Z,46.60
2018-01-17T03:54:46.460Z,46.50
2018-01-17T03:56:49.867Z,46.60
2018-01-17T03:58:53.264Z,46.60
2018-01-17T04:00:56.632Z,46.60
2018-01-17T04:02:59.999Z,46.60
2018-01-17T04:05:03.422Z,46.60
2018-01-17T04:07:06.785Z,46.50
2018-01-17T04:09:10.185Z,46.60
2018-01-17T04:11:13.540Z,46.60
2018-01-17T04:13:17.657Z,46.50
2018-01-17T04:15:21.110Z,46.40
2018-01-17T04:17:24.468Z,47.10
2018-01-17T04:19:27.891Z,46.50
2018-01-17T04:21:31.293Z,46.40
2018-01-17T04:23:34.820Z,46.30
2018-01-17T04:25:38.218Z,46.20
2018-01-17T04:27:41.587Z,46.10
2018-01-17T04:29:44.977Z,45.90
2018-01-17T04:31:48.349Z,45.80
2018-01-17T04:33:51.768Z,45.60
2018-01-17T04:35:55.926Z,45.20
2018-01-17T04:37:59.296Z,45.20
2018-01-17T04:40:02.700Z,45.00
2018-01-17T04:42:06.059Z,44.80
2018-01-17T04:44:10.190Z,44.50
2018-01-17T04:46:13.583Z,44.50
2018-01-17T04:48:16.961Z,44.30
2018-01-17T04:50:21.104Z,44.00
2018-01-17T04:52:24.468Z,44.00
2018-01-17T04:54:28.607Z,43.70
2018-01-17T04:56:31.985Z,43.70
2018-01-17T04:58:35.353Z,43.50
2018-01-17T05:00:38.920Z,43.40
2018-01-17T05:02:42.294Z,43.30
2018-01-17T05:04:45.642Z,43.20
2018-01-17T05:06:49.806Z,43.10
2018-01-17T05:08:53.161Z,43.10
2018-01-17T05:10:56.546Z,42.90
2018-01-17T05:12:59.907Z,42.90
2018-01-17T05:15:03.268Z,42.70
2018-01-17T05:17:06.662Z,42.70
2018-01-17T05:19:10.048Z,42.60
2018-01-17T05:21:13.584Z,42.40
2018-01-17T05:23:17.137Z,42.40
2018-01-17T05:25:20.497Z,42.30
2018-01-17T05:27:23.889Z,42.20
2018-01-17T05:29:28.302Z,42.10
2018-01-17T05:31:31.678Z,42.10
2018-01-17T05:33:35.840Z,42.10
2018-01-17T05:35:39.194Z,42.00
2018-01-17T05:37:43.447Z,41.90
2018-01-17T05:39:46.823Z,41.90
2018-01-17T05:41:50.235Z,41.90
2018-01-17T05:43:53.684Z,41.80
2018-01-17T05:45:57.859Z,41.70
2018-01-17T05:48:01.254Z,41.60
2018-01-17T05:50:04.641Z,41.60
2018-01-17T05:52:08.004Z,41.60
2018-01-17T05:54:11.390Z,41.50
2018-01-17T05:56:14.748Z,41.40
2018-01-17T05:58:19.063Z,41.50
2018-01-17T06:00:22.435Z,41.40
2018-01-17T06:02:25.809Z,41.30
2018-01-17T06:04:29.972Z,41.30
2018-01-17T06:06:33.317Z,41.30
2018-01-17T06:08:36.726Z,41.30
2018-01-17T06:10:40.077Z,41.40
2018-01-17T06:12:43.446Z,41.80
2018-01-17T06:14:46.865Z,41.70
2018-01-17T06:16:50.339Z,41.90
2018-01-17T06:18:53.741Z,42.00
2018-01-17T06:20:57.191Z,42.20
2018-01-17T06:23:01.347Z,42.40
2018-01-17T06:25:04.896Z,42.40
2018-01-17T06:27:08.737Z,42.60
2018-01-17T06:29:12.145Z,42.70
2018-01-17T06:31:15.667Z,42.70
2018-01-17T06:33:19.815Z,43.60
2018-01-17T06:35:23.215Z,42.90
2018-01-17T06:37:26.582Z,43.00
2018-01-17T06:39:30.007Z,43.30
2018-01-17T06:41:33.376Z,43.30
2018-01-17T06:43:37.514Z,43.50
2018-01-17T06:45:40.902Z,43.50
2018-01-17T06:47:44.299Z,43.60
2018-01-17T06:49:47.982Z,43.80
2018-01-17T06:51:51.391Z,43.90
2018-01-17T06:53:54.765Z,44.10
2018-01-17T06:55:58.748Z,44.30
2018-01-17T06:58:02.948Z,44.40
2018-01-17T07:00:06.093Z,44.40
2018-01-17T07:02:09.457Z,44.40
2018-01-17T07:04:13.612Z,44.50
2018-01-17T07:06:17.328Z,44.50
2018-01-17T07:08:21.524Z,44.40
2018-01-17T07:10:24.971Z,44.40
2018-01-17T07:12:29.084Z,44.30
2018-01-17T07:14:33.281Z,44.30
2018-01-17T07:16:37.477Z,44.10
2018-01-17T07:18:42.559Z,44.10
2018-01-17T07:20:46.076Z,44.00
2018-01-17T07:22:50.173Z,43.90
2018-01-17T07:24:53.542Z,43.60
2018-01-17T07:26:56.935Z,43.60
2018-01-17T07:29:00.104Z,43.60
2018-01-17T07:31:04.292Z,43.50
2018-01-17T07:33:07.732Z,43.50
2018-01-17T07:37:20.793Z,43.20
2018-01-17T07:39:24.151Z,43.20
2018-01-17T07:41:27.644Z,43.30
2018-01-17T07:43:31.009Z,44.00
2018-01-17T07:45:35.167Z,43.40
2018-01-17T07:47:38.575Z,43.30
2018-01-17T07:49:41.927Z,43.30
2018-01-17T07:51:45.080Z,43.30
2018-01-17T07:53:48.449Z,43.40
2018-01-17T07:55:51.810Z,43.30
2018-01-17T07:57:55.202Z,43.00
2018-01-17T07:59:58.574Z,42.90
2018-01-17T08:02:01.962Z,42.60
2018-01-17T08:04:06.074Z,42.40
2018-01-17T08:06:10.189Z,42.30
2018-01-17T08:08:13.586Z,42.20
2018-01-17T08:10:17.786Z,42.30
2018-01-17T08:12:21.162Z,42.40
2018-01-17T08:14:24.595Z,42.30
2018-01-17T08:16:27.954Z,42.20
2018-01-17T08:18:31.381Z,42.10
2018-01-17T08:20:34.733Z,41.90
2018-01-17T08:22:38.857Z,41.60
2018-01-17T08:24:43.002Z,41.60
2018-01-17T08:26:46.377Z,41.50
2018-01-17T08:28:49.771Z,41.40
2018-01-17T08:30:53.131Z,41.30
2018-01-17T08:32:56.512Z,41.30
2018-01-17T08:34:59.916Z,41.30
2018-01-17T08:37:04.027Z,41.40
2018-01-17T08:39:08.187Z,41.40
2018-01-17T08:41:11.659Z,41.40
2018-01-17T08:43:15.016Z,41.40
2018-01-17T08:45:18.399Z,41.50
2018-01-17T08:47:21.885Z,41.50
2018-01-17T08:49:25.324Z,41.50
2018-01-17T08:51:28.684Z,41.60
2018-01-17T08:53:32.076Z,41.70
2018-01-17T08:55:35.478Z,41.80
2018-01-17T08:57:39.024Z,41.90
2018-01-17T08:59:42.412Z,41.90
2018-01-17T09:01:47.201Z,42.00
2018-01-17T09:03:51.555Z,42.10
2018-01-17T09:05:55.076Z,42.30
2018-01-17T09:07:59.221Z,42.50
2018-01-17T09:10:03.449Z,42.70
2018-01-17T09:12:06.879Z,42.60
2018-01-17T09:14:10.266Z,42.60
2018-01-17T09:16:13.853Z,42.70
2018-01-17T09:18:17.242Z,42.70
2018-01-17T09:20:20.653Z,42.70
2018-01-17T09:22:24.009Z,42.80
2018-01-17T09:24:27.197Z,42.90
2018-01-17T09:26:30.613Z,43.00
2018-01-17T09:28:33.967Z,43.00
2018-01-17T09:30:38.093Z,43.10
2018-01-17T09:32:41.478Z,43.10
2018-01-17T09:34:45.605Z,43.20
2018-01-17T09:36:48.993Z,43.10
2018-01-17T09:38:52.420Z,43.20
2018-01-17T09:40:55.765Z,43.20
2018-01-17T09:42:59.410Z,43.20
2018-01-17T09:45:02.773Z,43.20
2018-01-17T09:47:06.183Z,43.30
2018-01-17T09:49:09.546Z,43.30
2018-01-17T09:51:12.929Z,43.30
2018-01-17T09:53:16.341Z,43.30
2018-01-17T09:55:19.721Z,43.30
2018-01-17T09:57:23.085Z,43.20
2018-01-17T09:59:27.247Z,43.30
2018-01-17T10:01:30.610Z,43.30
2018-01-17T10:03:34.762Z,43.30
2018-01-17T10:05:38.116Z,43.30
2018-01-17T10:07:41.729Z,43.30
2018-01-17T10:09:45.269Z,43.30
2018-01-17T10:11:48.631Z,43.30
2018-01-17T10:13:52.023Z,43.30
2018-01-17T10:15:55.409Z,43.20
2018-01-17T10:17:58.771Z,43.10
2018-01-17T10:20:02.150Z,43.10
2018-01-17T10:22:06.299Z,43.40
2018-01-17T10:24:09.700Z,43.30
2018-01-17T10:26:13.082Z,43.40
2018-01-17T10:28:16.488Z,43.30
2018-01-17T10:30:19.892Z,43.30
2018-01-17T10:32:23.293Z,43.30
2018-01-17T10:34:26.708Z,43.30
2018-01-17T10:36:30.863Z,43.30
2018-01-17T10:38:34.229Z,43.30
2018-01-17T10:40:38.382Z,43.40
2018-01-17T10:42:41.755Z,43.30
2018-01-17T10:44:45.121Z,43.30
2018-01-17T10:46:49.292Z,43.20
2018-01-17T10:48:52.709Z,43.10
2018-01-17T10:50:56.868Z,43.40
2018-01-17T10:53:00.223Z,43.00
2018-01-17T10:55:03.650Z,43.10
2018-01-17T10:57:07.809Z,42.90
2018-01-17T10:59:11.971Z,42.80
2018-01-17T11:01:15.366Z,42.70
2018-01-17T11:03:18.719Z,42.60
2018-01-17T11:05:22.847Z,42.50
2018-01-17T11:07:26.237Z,42.50
2018-01-17T11:09:29.687Z,42.50
2018-01-17T11:11:33.202Z,42.40
2018-01-17T11:13:37.363Z,42.40
2018-01-17T11:15:40.727Z,42.30
2018-01-17T11:17:43.972Z,42.20
2018-01-17T11:19:47.328Z,42.30
2018-01-17T11:21:50.774Z,42.30
2018-01-17T11:23:54.900Z,42.30
2018-01-17T11:25:58.298Z,42.10
2018-01-17T11:28:01.652Z,42.30
2018-01-17T11:30:04.781Z,43.20
2018-01-17T11:32:08.220Z,43.70
2018-01-17T11:34:11.578Z,44.10
2018-01-17T11:36:14.957Z,44.80
2018-01-17T11:38:18.445Z,45.60
2018-01-17T11:40:21.828Z,44.90
2018-01-17T11:42:26.004Z,44.20
2018-01-17T11:44:29.360Z,44.10
2018-01-17T11:46:32.726Z,44.10
2018-01-17T11:48:36.845Z,43.80
2018-01-17T11:50:41.073Z,43.70
2018-01-17T11:52:44.507Z,43.70
2018-01-17T11:54:47.886Z,43.70
2018-01-17T11:56:51.260Z,43.80
2018-01-17T11:58:54.659Z,43.80
2018-01-17T12:00:58.077Z,43.80
2018-01-17T12:03:01.451Z,43.80
2018-01-17T12:05:04.850Z,43.70
2018-01-17T12:07:08.277Z,43.80
2018-01-17T12:09:12.511Z,43.80
2018-01-17T12:11:15.869Z,43.80
2018-01-17T12:13:19.256Z,43.50
2018-01-17T12:15:22.648Z,44.10
2018-01-17T12:17:26.002Z,43.30
2018-01-17T12:19:29.399Z,43.20
2018-01-17T12:21:32.771Z,43.20
2018-01-17T12:23:36.177Z,43.10
2018-01-17T12:25:39.550Z,42.90
2018-01-17T12:27:42.977Z,42.90
2018-01-17T12:29:46.405Z,42.80
2018-01-17T12:31:50.586Z,42.20
2018-01-17T12:33:53.958Z,42.10
2018-01-17T12:35:57.372Z,41.70
2018-01-17T12:38:00.773Z,41.50
2018-01-17T12:40:04.262Z,41.30
2018-01-17T12:42:07.654Z,41.20
2018-01-17T12:44:11.025Z,41.00
2018-01-17T12:46:14.441Z,40.90
2018-01-17T12:48:17.821Z,40.70
2018-01-17T12:50:21.239Z,40.70
2018-01-17T12:52:24.612Z,40.70
2018-01-17T12:54:28.045Z,40.50
2018-01-17T12:56:32.282Z,40.50
2018-01-17T12:58:35.651Z,40.40
2018-01-17T13:00:39.824Z,40.70
2018-01-17T13:02:43.235Z,40.60
2018-01-17T13:04:46.598Z,40.70
2018-01-17T13:06:49.970Z,40.90
2018-01-17T13:08:53.337Z,41.00
2018-01-17T13:10:57.546Z,41.40
2018-01-17T13:13:01.727Z,41.60
2018-01-17T13:15:05.118Z,41.60
2018-01-17T13:17:08.557Z,41.60
2018-01-17T13:19:12.847Z,42.00
2018-01-17T13:21:16.335Z,41.80
2018-01-17T13:23:19.733Z,38.80
2018-01-17T13:25:23.100Z,32.30
2018-01-17T13:27:26.489Z,30.90
2018-01-17T13:29:30.112Z,28.30
2018-01-17T13:31:33.550Z,28.10
2018-01-17T13:33:36.922Z,29.20
2018-01-17T13:35:40.317Z,30.00
2018-01-17T13:37:43.958Z,30.90
2018-01-17T13:39:48.169Z,31.30
2018-01-17T13:41:51.475Z,31.20
2018-01-17T13:43:54.964Z,31.50
2018-01-17T13:45:58.383Z,31.80
2018-01-17T13:48:02.927Z,32.20
2018-01-17T13:50:06.319Z,32.20
2018-01-17T13:52:09.770Z,32.40
2018-01-17T13:54:13.158Z,32.60
2018-01-17T13:56:16.585Z,32.80
2018-01-17T13:58:20.868Z,33.20
2018-01-17T14:00:24.281Z,33.20
2018-01-17T14:02:28.462Z,33.70
2018-01-17T14:04:31.856Z,33.70
2018-01-17T14:06:36.955Z,33.90
2018-01-17T14:08:40.376Z,34.10
2018-01-17T14:10:43.944Z,34.30
2018-01-17T14:12:47.495Z,34.50
2018-01-17T14:14:50.900Z,34.80
2018-01-17T14:16:54.350Z,34.90
2018-01-17T14:18:58.049Z,35.00
2018-01-17T14:21:01.422Z,35.00
2018-01-17T14:23:04.866Z,35.10
2018-01-17T14:25:09.130Z,35.20
2018-01-17T14:27:12.505Z,35.20
2018-01-17T14:29:16.091Z,35.20
2018-01-17T14:31:19.881Z,35.20
2018-01-17T14:33:24.110Z,35.30
2018-01-17T14:35:27.658Z,35.20
2018-01-17T14:37:31.123Z,35.30
2018-01-17T14:39:34.625Z,35.30
2018-01-17T14:41:38.959Z,35.30
2018-01-17T14:43:42.569Z,35.50
2018-01-17T14:45:46.138Z,35.60
2018-01-17T14:47:49.576Z,35.90
2018-01-17T14:49:53.815Z,36.20
2018-01-17T14:51:57.205Z,36.20
2018-01-17T14:54:00.649Z,36.40
2018-01-17T14:56:04.064Z,36.70
2018-01-17T14:58:08.213Z,37.10
2018-01-17T15:00:17.254Z,37.00
2018-01-17T15:02:20.696Z,37.20
2018-01-17T15:04:24.078Z,37.40
2018-01-17T15:06:27.558Z,37.60
2018-01-17T15:08:31.014Z,38.20
2018-01-17T15:10:35.502Z,38.10
2018-01-17T15:12:38.932Z,38.30
2018-01-17T15:14:42.343Z,38.50
2018-01-17T15:16:45.605Z,38.70
2018-01-17T15:18:49.700Z,38.90
2018-01-17T15:20:52.932Z,39.00
2018-01-17T15:22:56.545Z,39.10
2018-01-17T15:25:00.215Z,39.20
2018-01-17T15:27:03.608Z,39.40
2018-01-17T15:29:07.148Z,39.60
2018-01-17T15:31:10.574Z,39.70
2018-01-17T15:33:14.067Z,39.80
2018-01-17T15:35:17.623Z,39.90
2018-01-17T15:37:21.237Z,40.00
2018-01-17T15:39:24.597Z,40.10
2018-01-17T15:41:27.961Z,40.10
2018-01-17T15:43:31.308Z,40.80
2018-01-17T15:45:35.428Z,40.40
2018-01-17T15:47:39.584Z,40.40
2018-01-17T15:49:42.938Z,40.30
2018-01-17T15:51:46.425Z,40.50
2018-01-17T15:53:49.789Z,40.50
2018-01-17T15:55:53.154Z,40.50
2018-01-17T15:57:56.509Z,40.50
2018-01-17T15:59:59.862Z,40.60
2018-01-17T16:02:03.269Z,40.60
2018-01-17T16:04:06.653Z,40.70
2018-01-17T16:06:10.777Z,40.90
2018-01-17T16:08:14.133Z,40.90
2018-01-17T16:10:17.505Z,40.90
2018-01-17T16:12:20.942Z,41.00
2018-01-17T16:14:24.322Z,41.10
2018-01-17T16:16:28.484Z,41.20
2018-01-17T16:18:31.845Z,41.20
2018-01-17T16:20:35.976Z,40.90
2018-01-17T16:22:39.327Z,41.40
2018-01-17T16:24:42.701Z,41.40
2018-01-17T16:26:46.068Z,41.40
2018-01-17T16:28:49.456Z,41.40
2018-01-17T16:30:52.822Z,41.50
2018-01-17T16:32:56.992Z,41.60
2018-01-17T16:35:00.351Z,41.60
2018-01-17T16:37:03.751Z,42.20
2018-01-17T16:39:07.104Z,41.60
2018-01-17T16:41:10.470Z,41.50
2018-01-17T16:43:13.845Z,41.40
2018-01-17T16:45:17.202Z,41.30
2018-01-17T16:47:20.576Z,41.20
2018-01-17T16:49:24.786Z,40.90
2018-01-17T16:51:28.164Z,40.90
2018-01-17T16:53:32.320Z,40.90
2018-01-17T16:55:35.720Z,40.90
2018-01-17T16:57:39.317Z,40.90
2018-01-17T16:59:42.677Z,41.00
2018-01-17T17:01:46.507Z,40.90
2018-01-17T17:03:50.077Z,41.00
2018-01-17T17:05:54.269Z,40.90
2018-01-17T17:07:57.781Z,40.90
2018-01-17T17:10:02.154Z,40.70
2018-01-17T17:12:06.121Z,40.70
2018-01-17T17:14:09.499Z,40.70
2018-01-17T17:16:13.737Z,40.70
2018-01-17T17:18:17.169Z,40.60
2018-01-17T17:20:20.551Z,40.40
2018-01-17T17:22:24.048Z,40.40
2018-01-17T17:24:27.443Z,40.20
2018-01-17T17:26:30.814Z,40.10
2018-01-17T17:28:34.180Z,40.10
2018-01-17T17:30:37.707Z,40.00
2018-01-17T17:32:41.232Z,40.20
2018-01-17T17:34:45.536Z,40.20
2018-01-17T17:36:48.905Z,40.20
2018-01-17T17:38:52.295Z,40.70
2018-01-17T17:40:55.799Z,40.30
2018-01-17T17:42:59.985Z,40.40
2018-01-17T17:45:03.610Z,40.40
2018-01-17T17:47:07.361Z,40.50
2018-01-17T17:49:11.506Z,40.60
2018-01-17T17:51:14.967Z,40.60
2018-01-17T17:53:18.491Z,40.80
2018-01-17T17:55:22.393Z,40.70
2018-01-17T17:57:25.823Z,41.50
2018-01-17T17:59:30.148Z,41.00
2018-01-17T18:01:33.935Z,41.00
2018-01-17T18:03:38.161Z,41.20
2018-01-17T18:05:41.526Z,41.10
2018-01-17T18:07:44.917Z,41.20
2018-01-17T18:09:48.310Z,41.40
2018-01-17T18:11:51.712Z,41.40
2018-01-17T18:13:55.075Z,41.50
2018-01-17T18:15:58.805Z,41.60
2018-01-17T18:18:03.970Z,41.80
2018-01-17T18:20:08.325Z,41.80
2018-01-17T18:22:12.746Z,41.80
2018-01-17T18:24:17.200Z,41.80
2018-01-17T18:26:22.246Z,41.80
2018-01-17T18:28:25.696Z,41.70
2018-01-17T18:30:29.080Z,41.80
2018-01-17T18:32:32.461Z,41.90
2018-01-17T18:34:36.589Z,42.00
2018-01-17T18:36:40.029Z,41.80
2018-01-17T18:38:44.874Z,41.90
2018-01-17T18:40:48.304Z,42.50
2018-01-17T18:42:51.834Z,41.90
2018-01-17T18:44:55.325Z,41.90
2018-01-17T18:46:58.828Z,42.00
2018-01-17T18:49:03.202Z,42.00
2018-01-17T18:51:06.713Z,41.90
2018-01-17T18:53:10.800Z,42.10
2018-01-17T18:55:15.525Z,41.90
2018-01-17T18:57:19.136Z,41.90
2018-01-17T18:59:22.766Z,42.00
2018-01-17T19:01:26.948Z,42.00
2018-01-17T19:03:30.402Z,42.00
2018-01-17T19:05:33.859Z,42.20
2018-01-17T19:07:37.335Z,42.10
2018-01-17T19:09:40.900Z,42.10
2018-01-17T19:11:44.523Z,42.10
2018-01-17T19:13:48.024Z,42.10
2018-01-17T19:15:51.596Z,42.10
2018-01-17T19:17:55.032Z,42.20
2018-01-17T19:19:58.445Z,42.20
2018-01-17T19:22:02.667Z,42.20
2018-01-17T19:24:06.070Z,42.20
2018-01-17T19:26:09.453Z,42.20
2018-01-17T19:28:12.859Z,42.30
2018-01-17T19:30:16.484Z,42.40
2018-01-17T19:32:20.016Z,42.30
2018-01-17T19:34:23.413Z,42.30
2018-01-17T19:36:27.766Z,42.40
2018-01-17T19:38:31.594Z,42.30
2018-01-17T19:40:35.183Z,42.40
2018-01-17T19:42:38.582Z,42.40
2018-01-17T19:44:42.960Z,42.40
2018-01-17T19:46:46.407Z,42.40
2018-01-17T19:48:50.745Z,42.30
2018-01-17T19:50:55.450Z,42.20
2018-01-17T19:52:59.604Z,42.00
2018-01-17T19:55:03.033Z,42.00
2018-01-17T19:57:07.502Z,41.90
2018-01-17T19:59:11.868Z,41.70
2018-01-17T20:01:15.806Z,41.70
2018-01-17T20:03:21.551Z,41.60
2018-01-17T20:05:25.847Z,41.60
2018-01-17T20:07:29.399Z,41.60
2018-01-17T20:09:32.826Z,41.50
2018-01-17T20:11:36.313Z,41.40
2018-01-17T20:13:40.514Z,41.50
2018-01-17T20:15:43.970Z,41.40
2018-01-17T20:17:48.292Z,41.40
2018-01-17T20:19:52.046Z,41.30
2018-01-17T20:21:55.466Z,41.40
2018-01-17T20:23:59.070Z,41.30
2018-01-17T20:26:03.196Z,41.30
2018-01-17T20:28:06.647Z,41.30
2018-01-17T20:30:10.141Z,41.30
2018-01-17T20:32:13.586Z,41.40
2018-01-17T20:34:16.985Z,41.30
2018-01-17T20:36:20.571Z,41.40
2018-01-17T20:38:24.089Z,41.40
2018-01-17T20:40:27.514Z,41.40
2018-01-17T20:42:30.936Z,41.40
2018-01-17T20:44:34.394Z,41.50
2018-01-17T20:46:37.795Z,41.50
2018-01-17T20:48:41.237Z,41.50
2018-01-17T20:50:44.733Z,41.60
2018-01-17T20:52:48.141Z,41.70
2018-01-17T20:54:51.487Z,41.70
2018-01-17T20:56:55.669Z,41.80
2018-01-17T20:58:59.079Z,41.80
2018-01-17T21:01:02.483Z,41.80
2018-01-17T21:03:06.643Z,42.00
2018-01-17T21:05:10.006Z,42.00
2018-01-17T21:07:14.184Z,42.00
2018-01-17T21:09:17.607Z,41.90
2018-01-17T21:11:21.034Z,42.70
2018-01-17T21:13:24.454Z,42.00
2018-01-17T21:15:27.849Z,42.10
2018-01-17T21:17:31.262Z,42.20
2018-01-17T21:19:35.421Z,42.40
2018-01-17T21:21:38.797Z,42.30
2018-01-17T21:23:42.194Z,42.50
2018-01-17T21:25:45.587Z,42.60
2018-01-17T21:27:49.000Z,42.70
2018-01-17T21:29:52.391Z,42.70
2018-01-17T21:31:55.758Z,42.90
2018-01-17T21:33:59.154Z,42.90
2018-01-17T21:36:02.530Z,43.00
2018-01-17T21:38:05.886Z,43.00
2018-01-17T21:40:09.331Z,43.10
2018-01-17T21:42:18.151Z,43.10
2018-01-17T21:44:27.093Z,43.10
2018-01-17T21:46:30.283Z,43.10
2018-01-17T21:48:33.651Z,43.20
2018-01-17T21:50:37.078Z,43.20
2018-01-17T21:52:41.296Z,43.30
2018-01-17T21:54:44.735Z,43.30
2018-01-17T21:56:48.236Z,43.30
2018-01-17T21:58:51.693Z,43.30
2018-01-17T22:00:55.097Z,43.30
2018-01-17T22:02:59.229Z,43.40
2018-01-17T22:05:02.624Z,43.30
2018-01-17T22:07:05.991Z,43.50
2018-01-17T22:09:10.135Z,43.60
2018-01-17T22:11:13.538Z,43.60
2018-01-17T22:13:17.252Z,43.50
2018-01-17T22:15:21.369Z,43.60
2018-01-17T22:17:25.461Z,43.60
2018-01-17T22:19:28.861Z,43.60
2018-01-17T22:21:32.255Z,43.70
2018-01-17T22:23:35.956Z,43.70
2018-01-17T22:25:39.345Z,43.70
2018-01-17T22:27:42.776Z,43.80
2018-01-17T22:29:46.906Z,43.80
2018-01-17T22:31:51.460Z,43.80
2018-01-17T22:33:55.630Z,43.90
2018-01-17T22:35:59.367Z,43.80
2018-01-17T22:38:03.787Z,43.80
2018-01-17T22:40:07.191Z,43.90
2018-01-17T22:42:11.380Z,43.90
2018-01-17T22:44:14.826Z,43.90
2018-01-17T22:46:18.301Z,43.90
2018-01-17T22:48:21.752Z,43.90
2018-01-17T22:50:25.539Z,44.00
2018-01-17T22:52:30.596Z,44.00
2018-01-17T22:54:34.102Z,43.90
2018-01-17T22:56:37.597Z,44.00
2018-01-17T22:58:40.975Z,43.50
2018-01-17T23:00:44.330Z,43.90
2018-01-17T23:02:48.485Z,44.00
2018-01-17T23:04:51.844Z,44.00
2018-01-17T23:06:55.990Z,44.00
2018-01-17T23:08:59.396Z,44.10
2018-01-17T23:11:02.752Z,44.00
2018-01-17T23:13:06.169Z,44.10
2018-01-17T23:15:09.532Z,44.10
2018-01-17T23:17:12.900Z,44.10
2018-01-17T23:19:17.063Z,44.20
2018-01-17T23:21:20.472Z,44.10
2018-01-17T23:23:23.865Z,44.20
2018-01-17T23:25:27.243Z,44.20
2018-01-17T23:27:30.616Z,44.20
2018-01-17T23:29:34.011Z,44.30
2018-01-17T23:31:37.374Z,44.30
2018-01-17T23:33:40.765Z,44.20
2018-01-17T23:35:44.886Z,44.30
2018-01-17T23:37:48.250Z,44.30
2018-01-17T23:39:51.645Z,44.30
2018-01-17T23:41:55.757Z,44.80
2018-01-17T23:43:59.146Z,44.40
2018-01-17T23:46:03.268Z,44.30
2018-01-17T23:48:07.397Z,44.30
2018-01-17T23:50:10.782Z,44.30
2018-01-17T23:52:14.158Z,44.30
2018-01-17T23:54:18.312Z,44.30
2018-01-17T23:56:21.662Z,44.30
2018-01-17T23:58:25.789Z,44.30
